Colorado Springs, CO (80936)

2:49 AM MDT on September 02, 2014 (GMT -0600)
Vickers & Flintridge | Change Station
CLOSE
Current Station
Personal Weather Station
Location: Colorado Springs, CO
Elevation: 6759 ft
Nearby Weather Stations

Elev 6759 ft 38.92 °N, 104.77 °W | Updated 41 seconds ago

Clear
Clear
54.1 °F
Feels Like 54.1 °F
N
0.0
Wind Variable Wind from East
Gusts 8.0 mph

Today
High -- | Low -- °F
--% Chance of Precip.
Yesterday
High -- | Low -- °F
Precip. -- in
6:28 AM 7:27 PM
Waxing Crescent, 49% visible
Pressure 29.99 in
Visibility 10.0 miles
Clouds Clear
Dew Point 45 °F
Humidity 72%
Rainfall 0.00 in
Snow Depth Not available.
UV 0 out of 12
Pollen 9.80 out of 12
PM2.5 Good
Flu Activity Not available.
METAR KAFF 020758Z AUTO 36005KT 10SM CLR 09/07 A3020 RMK AO2 SLP156 T00900066

More Conditions Fewer Conditions

Pressure 29.99 in
Visibility 10.0 miles
Clouds Clear
Dew Point 45 °F
Humidity 72%
Rainfall 0.00 in
Snow Depth Not available.
UV 0 out of 12
Pollen 9.80 out of 12
PM2.5 Good
Flu Activity Not available.
METAR KAFF 020758Z AUTO 36005KT 10SM CLR 09/07 A3020 RMK AO2 SLP156 T00900066

More Conditions Fewer Conditions

10-Day Weather Forecast

Almanac

Astronomy

Sep. 02, 2014 Rise Set
Actual Time 6:28 AM MDT 7:27 PM MDT
Civil Twilight 6:01 AM MDT 7:54 PM MDT
Nautical Twilight 5:29 AM MDT 8:27 PM MDT
Astronomical Twilight 4:55 AM MDT 9:00 PM MDT
Moon 2:11 PM MDT No Moon Set
Length of Visible Light 13h 53m
Length of Day
12h 58m
Tomorrow will be 2m 26s shorter.
Waxing Crescent, 49% of the Moon is Illuminated
Today
Waxing Crescent
Sep 2
First Quarter
Sep 8
Full
Sep 15
Last Quarter
Sep 24
New

Today's Extremes

State Highs State Lows

Community

WunderPhotos

Upload Photos

1,749,587 photos uploaded!

WunderBlogs® & News

Nearby

Air Quality

  Air Quality AQ Index Pollutant
Yesterday Good
OZONE
Yesterday Good
PM2.5
Current Good
PM2.5
Tuesday Good
PM2.5
Tuesday Good
OZONE

Snow Depth

Station Depth Elevation
Echo Lake 0 in 10600 ft
Rough And Tumble 1 in 10360 ft
Michigan Creek 0 in 10600 ft
Jackwhacker Gulch 1 in 10960 ft
Hoosier Pass 0 in 11400 ft

Earthquake Activity

City Distance Mag. Time & Date
Trinidad, Colorado 127 miles 2.7 4:20 AM MDT
2014-08-31
Minimum magnitude displayed is 2.5.

Coastal Water Temperatures

Place Temperature
No Stations Reporting

Nearby Weather Stations